Warsaw, Ohio
Current Conditions -  °F | °C
As of 4:56 PM on Friday 31 Oct 2014 (Local Time) from K4I3 Reporting Station
Drizzle Drizzle  
Wind Chill: 39°   Ceiling: Unl
Heat Index: 43°   Visibility: 5mi
Dew Point: 41°   Wind: 6mph
Humidity: 93%   Direction: 290°WNW
Pressure: 29.84"   Gusts: NA
Location:  40.34°N, 82.01°W
Report Text: K4I3 312056Z AUTO 29005KT 5SM DZ SCT008 SCT024 SCT029 06/05 A2984 RMK AO2
Loading
Personal Weather Stations






























Interactive Weather Map
Tropical Storm Tracking
New forecast layout! Learn more

10-Day Weather Forecast

Advertisements
Track Severe Weather on mobile